createdAt,value
2022-11-06T00:13:33.508Z,20.10
2022-11-06T00:19:34.342Z,20.00
2022-11-06T00:22:18.838Z,19.90
2022-11-06T00:25:32.204Z,19.90
2022-11-06T00:33:56.015Z,20.00
2022-11-06T00:43:11.088Z,20.20
2022-11-06T01:37:28.802Z,20.80
2022-11-06T01:52:32.811Z,20.90
2022-11-06T02:01:30.301Z,20.80
2022-11-06T02:52:26.013Z,20.50
2022-11-06T02:55:46.156Z,20.40
2022-11-06T03:02:16.807Z,20.50
2022-11-06T03:05:38.506Z,20.50
2022-11-06T03:12:26.946Z,20.50
2022-11-06T03:15:39.270Z,20.50
2022-11-06T03:22:21.959Z,20.60
2022-11-06T03:32:25.967Z,20.60
2022-11-06T03:37:23.940Z,20.50
2022-11-06T03:42:44.637Z,20.40
2022-11-06T03:48:46.056Z,20.50
2022-11-06T03:51:39.065Z,20.60
2022-11-06T03:54:39.394Z,20.60
2022-11-06T03:57:33.631Z,20.60
2022-11-06T04:00:08.972Z,20.70
2022-11-06T04:02:59.184Z,20.70
2022-11-06T04:09:11.597Z,20.80
2022-11-06T04:12:00.314Z,20.80
2022-11-06T04:14:33.161Z,20.80
2022-11-06T04:17:07.263Z,20.80
2022-11-06T04:19:39.645Z,20.80
2022-11-06T04:22:28.959Z,20.80
2022-11-06T04:25:25.934Z,20.70
2022-11-06T04:28:11.503Z,20.80
2022-11-06T04:30:48.856Z,20.80
2022-11-06T04:33:28.461Z,20.80
2022-11-06T04:36:06.673Z,20.80
2022-11-06T04:38:43.846Z,20.80
2022-11-06T04:41:22.551Z,20.80
2022-11-06T04:43:57.522Z,20.90
2022-11-06T04:46:31.210Z,20.90
2022-11-06T04:49:02.512Z,20.90
2022-11-06T04:51:38.709Z,21.00
2022-11-06T04:54:13.091Z,21.00
2022-11-06T04:56:48.325Z,21.00
2022-11-06T04:59:19.680Z,20.90
2022-11-06T05:01:50.172Z,21.00
2022-11-06T05:04:20.535Z,20.90
2022-11-06T05:06:52.452Z,20.90
2022-11-06T05:09:22.668Z,20.90
2022-11-06T05:11:52.942Z,20.90
2022-11-06T05:14:23.234Z,20.80
2022-11-06T05:16:53.617Z,20.80
2022-11-06T05:19:23.950Z,20.80
2022-11-06T05:22:12.991Z,20.90
2022-11-06T05:24:43.340Z,21.00
2022-11-06T05:27:13.937Z,21.00
2022-11-06T05:29:44.589Z,21.10
2022-11-06T05:32:14.858Z,21.10
2022-11-06T05:34:46.710Z,21.10
2022-11-06T05:37:24.132Z,21.20
2022-11-06T05:39:56.753Z,21.20
2022-11-06T05:42:31.234Z,21.20
2022-11-06T05:45:07.202Z,21.20
2022-11-06T05:47:37.599Z,21.10
2022-11-06T05:50:11.594Z,21.20
2022-11-06T05:52:43.462Z,21.20
2022-11-06T05:55:18.894Z,21.20
2022-11-06T05:57:53.731Z,21.20
2022-11-06T06:00:24.065Z,21.20
2022-11-06T06:02:54.555Z,21.20
2022-11-06T06:05:25.006Z,21.20
2022-11-06T06:07:56.946Z,21.20
2022-11-06T06:10:27.309Z,21.20
2022-11-06T06:12:57.657Z,21.20
2022-11-06T06:15:27.956Z,21.10
2022-11-06T06:17:59.789Z,21.10
2022-11-06T06:20:30.507Z,21.10
2022-11-06T06:23:12.134Z,21.10
2022-11-06T06:25:42.871Z,21.20
2022-11-06T06:28:15.941Z,21.20
2022-11-06T06:30:46.480Z,21.20
2022-11-06T06:33:19.058Z,21.20
2022-11-06T06:35:49.384Z,21.30
2022-11-06T06:38:23.813Z,21.30
2022-11-06T06:40:57.873Z,21.30
2022-11-06T06:43:28.234Z,21.30
2022-11-06T06:46:01.410Z,21.20
2022-11-06T06:48:32.598Z,21.30
2022-11-06T06:51:07.003Z,21.20
2022-11-06T06:53:41.998Z,21.20
2022-11-06T06:56:15.119Z,21.20
2022-11-06T06:58:55.953Z,21.20
2022-11-06T07:01:26.919Z,21.10
2022-11-06T07:04:03.885Z,21.10
2022-11-06T07:06:34.631Z,21.00
2022-11-06T07:09:06.728Z,21.00
2022-11-06T07:11:37.122Z,21.00
2022-11-06T07:14:07.472Z,21.00
2022-11-06T07:16:37.637Z,21.00
2022-11-06T07:19:08.190Z,21.00
2022-11-06T07:21:40.567Z,20.90
2022-11-06T07:24:12.616Z,20.90
2022-11-06T07:26:45.719Z,20.90
2022-11-06T07:29:20.137Z,20.90
2022-11-06T07:31:52.514Z,21.00
2022-11-06T07:34:22.685Z,21.00
2022-11-06T07:36:53.001Z,20.90
2022-11-06T07:39:27.934Z,20.90
2022-11-06T07:42:04.201Z,20.90
2022-11-06T07:44:37.020Z,20.90
2022-11-06T07:47:08.897Z,21.00
2022-11-06T07:49:39.080Z,21.00
2022-11-06T07:52:09.448Z,21.00
2022-11-06T07:54:44.271Z,21.00
2022-11-06T07:57:22.488Z,21.00
2022-11-06T07:59:52.618Z,21.10
2022-11-06T08:02:23.006Z,21.10
2022-11-06T08:04:53.350Z,21.20
2022-11-06T08:07:29.781Z,21.30
2022-11-06T08:10:05.899Z,21.30
2022-11-06T08:12:36.101Z,21.30
2022-11-06T08:15:06.984Z,21.30
2022-11-06T08:17:37.188Z,21.30
2022-11-06T08:20:08.995Z,21.40
2022-11-06T08:22:42.332Z,21.40
2022-11-06T08:25:17.159Z,21.30
2022-11-06T08:27:47.484Z,21.30
2022-11-06T08:30:19.031Z,21.20
2022-11-06T08:32:51.588Z,21.20
2022-11-06T08:35:21.823Z,21.20
2022-11-06T08:37:52.223Z,21.20
2022-11-06T08:40:28.021Z,21.10
2022-11-06T08:43:11.495Z,21.10
2022-11-06T08:45:42.896Z,21.00
2022-11-06T08:48:13.659Z,21.00
2022-11-06T08:50:43.818Z,21.00
2022-11-06T08:53:14.489Z,21.10
2022-11-06T08:55:46.442Z,21.00
2022-11-06T08:58:22.327Z,21.00
2022-11-06T09:00:55.938Z,21.00
2022-11-06T09:03:29.888Z,21.00
2022-11-06T09:06:01.911Z,20.90
2022-11-06T09:08:32.345Z,20.90
2022-11-06T09:11:10.767Z,21.00
2022-11-06T09:13:41.058Z,21.00
2022-11-06T09:16:15.518Z,21.00
2022-11-06T09:18:45.947Z,20.90
2022-11-06T09:21:16.682Z,20.60
2022-11-06T09:23:47.833Z,20.40
2022-11-06T09:26:19.624Z,20.00
2022-11-06T09:28:49.973Z,19.80
2022-11-06T09:31:20.117Z,19.60
2022-11-06T09:33:50.337Z,19.40
2022-11-06T09:36:20.589Z,19.20
2022-11-06T09:38:50.829Z,19.00
2022-11-06T09:41:35.601Z,18.90
2022-11-06T09:44:32.449Z,18.80
2022-11-06T09:47:08.311Z,18.70
2022-11-06T09:49:44.193Z,18.50
2022-11-06T09:52:20.522Z,18.40
2022-11-06T09:54:56.788Z,18.30
2022-11-06T09:57:36.475Z,18.30
2022-11-06T10:00:10.846Z,18.40
2022-11-06T10:02:46.087Z,18.50
2022-11-06T10:05:30.010Z,18.60
2022-11-06T10:08:02.673Z,18.60
2022-11-06T10:10:39.505Z,18.60
2022-11-06T10:13:29.555Z,18.60
2022-11-06T10:16:08.691Z,18.60
2022-11-06T10:18:49.088Z,18.60
2022-11-06T10:21:26.878Z,18.60
2022-11-06T10:24:00.254Z,18.60
2022-11-06T10:26:39.501Z,18.60
2022-11-06T10:29:25.889Z,18.50
2022-11-06T10:32:07.415Z,18.50
2022-11-06T10:34:43.136Z,18.40
2022-11-06T10:37:19.587Z,18.40
2022-11-06T10:40:06.362Z,18.30
2022-11-06T10:42:42.492Z,18.30
2022-11-06T10:45:21.566Z,18.30
2022-11-06T10:47:57.860Z,18.20
2022-11-06T10:50:35.260Z,18.20
2022-11-06T10:53:11.507Z,18.20
2022-11-06T10:56:18.458Z,18.20
2022-11-06T10:58:59.077Z,18.10
2022-11-06T11:01:31.171Z,18.10
2022-11-06T11:04:01.725Z,18.10
2022-11-06T11:06:31.938Z,18.00
2022-11-06T11:09:02.693Z,18.00
2022-11-06T11:11:34.128Z,18.00
2022-11-06T11:14:25.355Z,18.00
2022-11-06T11:16:58.202Z,18.10
2022-11-06T11:19:36.423Z,18.00
2022-11-06T11:22:19.835Z,18.00
2022-11-06T11:25:05.759Z,17.90
2022-11-06T11:27:45.209Z,17.80
2022-11-06T11:30:28.849Z,17.80
2022-11-06T11:33:03.422Z,17.70
2022-11-06T11:35:36.292Z,17.80
2022-11-06T11:38:10.867Z,17.70
2022-11-06T11:40:42.249Z,17.60
2022-11-06T11:43:27.915Z,17.40
2022-11-06T11:46:21.358Z,17.20
2022-11-06T11:48:56.455Z,17.00
2022-11-06T11:51:38.409Z,16.80
2022-11-06T11:54:20.090Z,16.70
2022-11-06T11:57:08.475Z,16.60
2022-11-06T11:59:45.464Z,16.50
2022-11-06T12:02:25.421Z,16.50
2022-11-06T12:05:01.286Z,16.40
2022-11-06T12:07:34.286Z,16.40
2022-11-06T12:10:15.375Z,16.30
2022-11-06T12:12:52.296Z,16.30
2022-11-06T12:15:24.032Z,16.30
2022-11-06T12:17:57.717Z,16.30
2022-11-06T12:20:42.311Z,16.30
2022-11-06T12:23:20.294Z,16.30
2022-11-06T12:26:00.865Z,16.40
2022-11-06T12:28:35.333Z,16.40
2022-11-06T12:31:11.625Z,16.40
2022-11-06T12:34:05.825Z,16.40
2022-11-06T12:36:39.986Z,16.40
2022-11-06T12:39:17.559Z,16.40
2022-11-06T12:41:51.523Z,16.40
2022-11-06T12:44:21.674Z,16.40
2022-11-06T12:47:01.806Z,16.50
2022-11-06T12:49:49.432Z,16.60
2022-11-06T12:52:36.118Z,16.60
2022-11-06T12:55:27.231Z,16.70
2022-11-06T12:58:12.049Z,16.70
2022-11-06T13:00:56.073Z,16.80
2022-11-06T13:03:45.855Z,16.80
2022-11-06T13:06:20.939Z,16.80
2022-11-06T13:09:01.007Z,16.80
2022-11-06T13:11:42.530Z,16.80
2022-11-06T13:14:23.461Z,16.80
2022-11-06T13:17:02.894Z,16.80
2022-11-06T13:19:40.745Z,16.80
2022-11-06T13:22:25.929Z,16.80
2022-11-06T13:25:06.640Z,16.80
2022-11-06T13:27:43.210Z,16.80
2022-11-06T13:30:19.450Z,16.80
2022-11-06T13:32:55.940Z,16.80
2022-11-06T13:35:27.079Z,16.80
2022-11-06T13:37:58.931Z,16.80
2022-11-06T13:40:36.787Z,16.80
2022-11-06T13:43:14.926Z,16.80
2022-11-06T13:45:49.951Z,16.80
2022-11-06T13:48:37.236Z,16.80
2022-11-06T13:51:16.157Z,16.80
2022-11-06T13:53:58.455Z,16.90
2022-11-06T13:56:54.627Z,16.90
2022-11-06T14:00:06.249Z,16.90
2022-11-06T14:03:02.046Z,17.00
2022-11-06T14:05:51.035Z,17.00
2022-11-06T14:08:25.550Z,17.00
2022-11-06T14:11:00.312Z,17.00
2022-11-06T14:13:35.862Z,17.10
2022-11-06T14:16:27.587Z,17.10
2022-11-06T14:19:03.933Z,17.20
2022-11-06T14:21:50.654Z,17.30
2022-11-06T14:24:33.047Z,17.30
2022-11-06T14:27:04.591Z,17.30
2022-11-06T14:30:01.139Z,17.30
2022-11-06T14:32:53.411Z,17.30
2022-11-06T14:35:54.005Z,17.30
2022-11-06T14:38:44.882Z,17.30
2022-11-06T14:41:53.220Z,17.30
2022-11-06T14:44:49.182Z,17.30
2022-11-06T14:47:42.593Z,17.20
2022-11-06T14:50:28.216Z,17.10
2022-11-06T14:53:01.471Z,17.10
2022-11-06T14:55:35.844Z,17.10
2022-11-06T14:58:21.513Z,17.10
2022-11-06T15:00:55.479Z,17.10
2022-11-06T15:03:32.810Z,17.20
2022-11-06T15:06:08.180Z,17.30
2022-11-06T15:09:05.639Z,17.30
2022-11-06T15:11:55.327Z,17.30
2022-11-06T15:14:59.164Z,17.20
2022-11-06T15:17:34.162Z,17.20
2022-11-06T15:20:32.261Z,17.10
2022-11-06T15:23:16.112Z,17.00
2022-11-06T15:26:05.203Z,16.90
2022-11-06T15:28:46.833Z,16.90
2022-11-06T15:31:20.701Z,17.00
2022-11-06T15:34:02.421Z,17.10
2022-11-06T15:36:42.455Z,17.10
2022-11-06T15:39:26.206Z,17.30
2022-11-06T15:41:56.288Z,17.40
2022-11-06T15:44:27.719Z,17.50
2022-11-06T15:46:58.817Z,17.60
2022-11-06T15:49:29.270Z,17.70
2022-11-06T15:52:02.317Z,17.80
2022-11-06T15:54:40.368Z,17.80
2022-11-06T15:57:18.751Z,17.80
2022-11-06T15:59:48.889Z,17.80
2022-11-06T16:02:21.287Z,17.60
2022-11-06T16:04:52.712Z,17.80
2022-11-06T16:07:24.631Z,18.10
2022-11-06T16:09:55.059Z,18.30
2022-11-06T16:12:25.291Z,18.40
2022-11-06T16:14:55.574Z,18.70
2022-11-06T16:17:28.240Z,18.90
2022-11-06T16:20:05.096Z,19.20
2022-11-06T16:22:37.063Z,19.50
2022-11-06T16:25:09.306Z,19.70
2022-11-06T16:27:42.492Z,19.80
2022-11-06T16:30:25.844Z,20.00
2022-11-06T16:32:56.157Z,20.20
2022-11-06T16:35:37.394Z,20.10
2022-11-06T16:38:42.313Z,20.20
2022-11-06T16:41:34.420Z,20.50
2022-11-06T16:44:31.486Z,20.50
2022-11-06T16:47:16.771Z,20.60
2022-11-06T16:49:53.506Z,20.80
2022-11-06T16:52:31.234Z,20.80
2022-11-06T16:55:05.433Z,21.00
2022-11-06T16:57:39.620Z,21.00
2022-11-06T17:00:24.433Z,21.20
2022-11-06T17:02:56.892Z,21.30
2022-11-06T17:05:29.487Z,21.60
2022-11-06T17:08:10.407Z,21.80
2022-11-06T17:10:44.869Z,21.90
2022-11-06T17:13:21.825Z,21.90
2022-11-06T17:15:55.823Z,22.00
2022-11-06T17:18:27.611Z,21.70
2022-11-06T17:20:59.729Z,21.60
2022-11-06T17:23:31.119Z,21.70
2022-11-06T17:26:07.422Z,21.70
2022-11-06T17:28:37.629Z,21.60
2022-11-06T17:31:08.026Z,21.60
2022-11-06T17:33:38.338Z,21.70
2022-11-06T17:36:09.638Z,21.80
2022-11-06T17:38:39.831Z,21.80
2022-11-06T17:41:11.610Z,21.60
2022-11-06T17:43:42.294Z,21.20
2022-11-06T17:46:14.983Z,21.00
2022-11-06T17:48:45.180Z,20.90
2022-11-06T17:51:38.190Z,20.90
2022-11-06T17:54:14.420Z,20.80
2022-11-06T17:56:46.322Z,20.80
2022-11-06T17:59:18.610Z,20.80
2022-11-06T18:01:51.250Z,20.80
2022-11-06T18:04:22.229Z,20.70
2022-11-06T18:06:54.151Z,20.70
2022-11-06T18:09:27.908Z,20.80
2022-11-06T18:12:00.212Z,20.70
2022-11-06T18:14:31.025Z,20.70
2022-11-06T18:17:02.028Z,20.80
2022-11-06T18:19:32.391Z,20.90
2022-11-06T18:22:06.691Z,20.90
2022-11-06T18:24:40.631Z,20.90
2022-11-06T18:27:12.788Z,20.90
2022-11-06T18:29:43.068Z,20.80
2022-11-06T18:32:16.246Z,20.70
2022-11-06T18:34:46.764Z,20.60
2022-11-06T18:37:17.012Z,20.60
2022-11-06T18:39:48.478Z,20.60
2022-11-06T18:42:20.458Z,20.60
2022-11-06T18:44:50.776Z,20.60
2022-11-06T18:47:24.252Z,20.60
2022-11-06T18:49:54.527Z,20.60
2022-11-06T18:52:51.395Z,20.60
2022-11-06T18:55:15.572Z,20.60
2022-11-06T18:57:47.452Z,20.70
2022-11-06T19:00:18.639Z,20.70
2022-11-06T19:02:53.796Z,20.70
2022-11-06T19:05:24.152Z,20.60
2022-11-06T19:08:00.031Z,20.60
2022-11-06T19:10:32.130Z,20.50
2022-11-06T19:13:03.982Z,20.50
2022-11-06T19:15:38.396Z,20.50
2022-11-06T19:18:09.297Z,20.50
2022-11-06T19:20:42.878Z,20.50
2022-11-06T19:23:17.158Z,20.40
2022-11-06T19:25:50.817Z,20.30
2022-11-06T19:28:35.637Z,20.20
2022-11-06T19:31:07.138Z,20.20
2022-11-06T19:33:37.341Z,20.10
2022-11-06T19:36:08.285Z,20.00
2022-11-06T19:38:38.609Z,20.00
2022-11-06T19:41:09.265Z,19.90
2022-11-06T19:43:41.578Z,19.90
2022-11-06T19:46:11.971Z,19.80
2022-11-06T19:48:43.380Z,19.70
2022-11-06T19:51:14.989Z,19.70
2022-11-06T19:53:45.816Z,19.60
2022-11-06T19:56:19.613Z,19.60
2022-11-06T19:58:51.687Z,19.50
2022-11-06T20:01:23.386Z,19.50
2022-11-06T20:03:53.640Z,19.50
2022-11-06T20:06:24.308Z,19.50
2022-11-06T20:08:55.134Z,19.40
2022-11-06T20:11:25.554Z,19.40
2022-11-06T20:13:57.437Z,19.30
2022-11-06T20:16:28.269Z,19.30
2022-11-06T20:18:59.857Z,19.30
2022-11-06T20:21:31.546Z,19.20
2022-11-06T20:24:01.793Z,19.20
2022-11-06T20:26:32.107Z,19.20
2022-11-06T20:29:03.990Z,19.10
2022-11-06T20:31:46.577Z,19.10
2022-11-06T20:34:17.336Z,19.10
2022-11-06T20:36:47.634Z,19.00
2022-11-06T20:39:19.557Z,19.00
2022-11-06T20:41:50.279Z,18.90
2022-11-06T20:44:22.140Z,18.90
2022-11-06T20:46:52.504Z,18.90
2022-11-06T20:49:23.359Z,18.80
2022-11-06T20:52:13.198Z,18.80
2022-11-06T20:54:47.469Z,18.70
2022-11-06T20:57:18.477Z,18.70
2022-11-06T20:59:53.165Z,18.60
2022-11-06T21:02:23.823Z,18.50
2022-11-06T21:04:54.263Z,18.50
2022-11-06T21:07:24.766Z,18.40
2022-11-06T21:10:01.107Z,18.30
2022-11-06T21:12:31.856Z,18.20
2022-11-06T21:15:03.723Z,18.10
2022-11-06T21:17:34.436Z,18.10
2022-11-06T21:20:04.976Z,18.10
2022-11-06T21:22:35.789Z,18.00
2022-11-06T21:25:06.299Z,17.90
2022-11-06T21:27:36.623Z,17.80
2022-11-06T21:30:09.620Z,17.80
2022-11-06T21:32:39.944Z,17.60
2022-11-06T21:35:11.139Z,17.50
2022-11-06T21:37:41.546Z,17.40
2022-11-06T21:40:17.735Z,17.40
2022-11-06T21:42:48.307Z,17.30
2022-11-06T21:45:20.281Z,17.20
2022-11-06T21:47:51.606Z,17.10
2022-11-06T21:50:29.535Z,17.10
2022-11-06T21:53:19.651Z,17.10
2022-11-06T21:56:02.273Z,17.10
2022-11-06T21:58:49.245Z,17.10
2022-11-06T22:01:21.796Z,17.10
2022-11-06T22:03:53.217Z,17.20
2022-11-06T22:06:30.064Z,17.20
2022-11-06T22:09:02.786Z,17.20
2022-11-06T22:11:34.934Z,17.20
2022-11-06T22:14:10.684Z,17.20
2022-11-06T22:16:44.185Z,17.20
2022-11-06T22:19:16.186Z,17.10
2022-11-06T22:21:49.931Z,17.10
2022-11-06T22:27:08.386Z,17.10
2022-11-06T22:29:39.516Z,17.00
2022-11-06T22:34:55.749Z,17.00
2022-11-06T22:37:26.069Z,16.90
2022-11-06T22:39:58.555Z,16.90
2022-11-06T22:42:28.837Z,16.90
2022-11-06T22:44:59.199Z,16.80
2022-11-06T22:47:31.534Z,16.80
2022-11-06T22:50:01.701Z,16.70
2022-11-06T22:52:31.876Z,16.60
2022-11-06T22:55:02.008Z,16.60
2022-11-06T22:57:35.386Z,16.60
2022-11-06T23:00:06.530Z,16.50
2022-11-06T23:02:38.400Z,16.50
2022-11-06T23:05:09.484Z,16.50
2022-11-06T23:07:41.992Z,16.50
2022-11-06T23:10:12.672Z,16.40
2022-11-06T23:12:42.934Z,16.40
2022-11-06T23:15:13.932Z,16.30
2022-11-06T23:17:45.834Z,16.20
2022-11-06T23:20:16.097Z,16.10
2022-11-06T23:22:46.647Z,15.90
2022-11-06T23:25:19.027Z,15.80
2022-11-06T23:27:50.179Z,15.70
2022-11-06T23:30:22.577Z,15.60
2022-11-06T23:32:57.603Z,15.50
2022-11-06T23:35:32.421Z,15.50
2022-11-06T23:38:03.184Z,15.40
2022-11-06T23:41:34.743Z,15.30
2022-11-06T23:44:27.740Z,15.20
2022-11-06T23:47:09.436Z,15.00
2022-11-06T23:49:41.399Z,14.80
2022-11-06T23:52:11.966Z,14.70
2022-11-06T23:54:42.248Z,14.60
2022-11-06T23:57:16.279Z,14.50
2022-11-06T23:59:46.612Z,14.50
